Time;durP1;ratioP1;P1;durP2;ratioP2;P2;SDS_P1;SDS_P2;PMS_P1;PMS_P2;Temp;Humidity;BMP_temperature;BMP_pressure;BME280_temperature;BME280_humidity;BME280_pressure;Samples;Min_cycle;Max_cycle;Signal;HPM_P1;HPM_P2
2024/03/01 00:02:18;;;;;;;24.75;15.13;;;;;;;10.53;100.00;92895.41;5060040;28;20049;-74
2024/03/01 00:04:45;;;;;;;24.90;15.95;;;;;;;10.68;100.00;92893.22;5065681;28;20044;-74
2024/03/01 00:07:12;;;;;;;23.80;14.95;;;;;;;10.59;100.00;92880.91;5066013;28;20078;-74
2024/03/01 00:09:38;;;;;;;20.80;15.02;;;;;;;10.72;100.00;92892.78;5066236;28;20048;-74
2024/03/01 00:12:06;;;;;;;23.50;16.15;;;;;;;10.69;100.00;92892.22;5061753;28;20517;-74
2024/03/01 00:14:34;;;;;;;24.60;16.05;;;;;;;10.73;100.00;92884.88;5064133;28;20106;-74
2024/03/01 00:17:01;;;;;;;21.55;15.18;;;;;;;10.60;97.66;92892.75;5065768;28;20127;-74
2024/03/01 00:19:28;;;;;;;24.33;16.30;;;;;;;10.60;98.93;92887.63;5061214;28;20106;-74
2024/03/01 00:21:55;;;;;;;25.67;15.75;;;;;;;10.35;100.00;92880.78;5063907;28;20139;-74
2024/03/01 00:24:22;;;;;;;25.60;16.58;;;;;;;10.32;100.00;92856.31;5069688;28;20048;-74
2024/03/01 00:26:49;;;;;;;23.23;15.80;;;;;;;10.26;100.00;92850.28;5069740;28;20044;-74
2024/03/01 00:29:16;;;;;;;24.80;18.08;;;;;;;10.48;99.67;92872.16;5069161;28;20048;-74
2024/03/01 00:31:44;;;;;;;28.10;17.38;;;;;;;10.52;99.64;92865.59;5065808;28;20051;-74
2024/03/01 00:34:11;;;;;;;29.33;18.65;;;;;;;10.44;98.24;92864.09;5065483;28;20124;-74
2024/03/01 00:36:38;;;;;;;29.17;19.73;;;;;;;10.41;98.70;92862.72;5065605;28;20053;-74
2024/03/01 00:39:07;;;;;;;33.00;20.02;;;;;;;10.27;99.21;92851.03;5067430;28;20905;-74
2024/03/01 00:41:34;;;;;;;27.20;18.33;;;;;;;10.41;98.74;92860.16;5066736;28;20084;-74
2024/03/01 00:44:01;;;;;;;36.70;20.35;;;;;;;10.44;98.92;92848.69;5068844;28;20072;-74
2024/03/01 00:46:28;;;;;;;28.95;19.73;;;;;;;10.46;98.16;92851.06;5059974;28;20869;-74
2024/03/01 00:48:56;;;;;;;28.60;21.13;;;;;;;10.49;98.60;92853.16;5066899;28;20044;-74
2024/03/01 00:51:23;;;;;;;34.90;21.65;;;;;;;10.50;98.84;92834.19;5066378;28;20053;-74
2024/03/01 00:53:50;;;;;;;33.70;22.65;;;;;;;10.48;97.62;92833.63;5063237;28;20044;-74
2024/03/01 00:56:17;;;;;;;34.85;23.05;;;;;;;10.47;97.49;92829.50;5067151;28;20048;-74
2024/03/01 00:58:44;;;;;;;33.55;22.90;;;;;;;10.18;98.86;92821.56;5059775;28;20045;-74
2024/03/01 01:01:11;;;;;;;33.58;23.35;;;;;;;10.33;98.73;92834.78;5064089;28;20096;-74
2024/03/01 01:03:38;;;;;;;37.45;24.15;;;;;;;10.28;99.84;92819.25;5067333;28;20052;-74
2024/03/01 01:06:06;;;;;;;37.15;23.55;;;;;;;10.14;100.00;92818.63;5068699;28;20040;-75
2024/03/01 01:08:33;;;;;;;34.33;22.45;;;;;;;10.03;100.00;92833.75;5062866;28;20052;-74
2024/03/01 01:11:00;;;;;;;34.75;23.58;;;;;;;10.06;100.00;92847.94;5067890;28;20049;-73
2024/03/01 01:13:28;;;;;;;33.90;22.65;;;;;;;10.13;100.00;92847.84;5064968;28;20046;-74
2024/03/01 01:15:54;;;;;;;29.08;20.13;;;;;;;10.03;100.00;92833.75;5066954;28;20834;-75
2024/03/01 01:18:21;;;;;;;31.00;19.90;;;;;;;10.04;100.00;92829.38;5066560;28;20512;-74
2024/03/01 01:20:49;;;;;;;30.55;20.88;;;;;;;9.96;100.00;92825.34;5061996;28;20052;-74
2024/03/01 01:23:17;;;;;;;34.40;21.38;;;;;;;9.96;100.00;92817.63;5069294;28;20045;-74
2024/03/01 01:25:44;;;;;;;30.05;20.45;;;;;;;9.94;100.00;92816.28;5068771;28;20123;-74
2024/03/01 01:28:11;;;;;;;27.23;20.70;;;;;;;9.94;100.00;92813.72;5064352;28;20490;-74
2024/03/01 01:30:38;;;;;;;27.88;19.58;;;;;;;9.95;100.00;92803.25;5061052;28;20055;-74
2024/03/01 01:33:05;;;;;;;32.60;21.10;;;;;;;9.88;100.00;92810.25;5066136;28;20462;-73
2024/03/01 01:35:32;;;;;;;34.75;23.67;;;;;;;9.80;100.00;92801.06;5064011;28;20052;-73
2024/03/01 01:38:00;;;;;;;34.22;24.02;;;;;;;9.84;100.00;92798.84;5060885;28;20103;-73
2024/03/01 01:40:30;;;;;;;35.80;24.73;;;;;;;9.85;100.00;92803.75;5068886;28;20123;-74
2024/03/01 01:42:58;;;;;;;43.83;27.55;;;;;;;9.78;100.00;92792.81;5063461;28;20045;-74
2024/03/01 01:45:25;;;;;;;42.17;26.27;;;;;;;9.75;100.00;92781.19;5068744;28;20713;-74
2024/03/01 01:47:53;;;;;;;42.95;26.95;;;;;;;9.62;100.00;92783.88;5066408;28;20740;-74
2024/03/01 01:50:21;;;;;;;42.05;27.50;;;;;;;9.56;100.00;92765.03;5058277;28;20132;-74
2024/03/01 01:52:48;;;;;;;39.78;26.85;;;;;;;9.62;100.00;92776.97;5066658;28;20123;-74
2024/03/01 01:55:16;;;;;;;45.35;28.30;;;;;;;9.53;100.00;92751.84;5062694;28;20454;-74
2024/03/01 01:57:46;;;;;;;42.95;28.20;;;;;;;9.60;100.00;92750.00;5064210;28;20049;-75
2024/03/01 02:00:14;;;;;;;45.38;28.00;;;;;;;9.56;100.00;92751.41;5067592;28;20132;-74
2024/03/01 02:02:42;;;;;;;46.72;29.23;;;;;;;9.41;100.00;92747.44;5066575;28;20132;-74
2024/03/01 02:05:09;;;;;;;46.38;29.92;;;;;;;9.51;100.00;92751.25;5067744;28;20051;-74
2024/03/01 02:07:37;;;;;;;42.35;28.25;;;;;;;9.55;100.00;92742.94;5064378;28;20068;-74
2024/03/01 02:10:16;;;;;;;40.38;27.00;;;;;;;9.59;100.00;92733.03;5065842;28;20044;-73
2024/03/01 02:12:54;;;;;;;30.95;19.85;;;;;;;9.53;100.00;92739.78;5061713;28;20056;-73
2024/03/01 02:15:21;;;;;;;26.98;19.90;;;;;;;9.45;100.00;92742.66;5066917;28;20123;-74
2024/03/01 02:17:48;;;;;;;29.08;19.63;;;;;;;9.46;100.00;92732.19;5067644;28;20155;-74
2024/03/01 02:20:16;;;;;;;25.70;17.17;;;;;;;9.49;100.00;92739.44;5061141;28;20132;-74
2024/03/01 02:22:50;;;;;;;23.40;16.95;;;;;;;9.40;100.00;92743.28;5067677;28;20136;-74
2024/03/01 02:25:19;;;;;;;23.95;15.35;;;;;;;9.40;100.00;92748.41;5067396;28;20049;-74
2024/03/01 02:27:48;;;;;;;21.85;15.48;;;;;;;9.38;100.00;92744.50;5065158;28;20067;-73
2024/03/01 02:30:15;;;;;;;19.67;15.55;;;;;;;9.34;100.00;92744.13;5067103;28;20048;-74
2024/03/01 02:32:42;;;;;;;23.40;15.10;;;;;;;9.29;100.00;92739.66;5065111;28;20099;-74
2024/03/01 02:35:09;;;;;;;22.00;15.82;;;;;;;9.26;100.00;92739.31;5063568;28;20071;-74
2024/03/01 02:37:36;;;;;;;21.42;16.05;;;;;;;9.12;100.00;92741.97;5067259;28;20062;-74
2024/03/01 02:40:04;;;;;;;21.05;15.77;;;;;;;9.11;100.00;92739.66;5064339;28;20391;-73
2024/03/01 02:42:34;;;;;;;24.42;15.70;;;;;;;9.17;100.00;92734.44;5065786;28;20048;-74
2024/03/01 02:45:02;;;;;;;22.73;15.95;;;;;;;9.14;100.00;92737.44;5063843;28;20048;-73
2024/03/01 02:47:29;;;;;;;22.60;15.98;;;;;;;9.13;100.00;92733.31;5060869;28;20045;-74
2024/03/01 02:49:57;;;;;;;19.50;13.40;;;;;;;9.08;100.00;92731.38;5064477;28;20048;-74
2024/03/01 02:52:24;;;;;;;19.10;13.57;;;;;;;8.97;100.00;92733.88;5066708;28;20145;-73
2024/03/01 02:54:51;;;;;;;19.25;13.48;;;;;;;8.91;100.00;92726.03;5062842;28;20044;-73
2024/03/01 02:57:18;;;;;;;20.67;13.15;;;;;;;8.92;100.00;92721.69;5063420;28;21256;-73
2024/03/01 02:59:46;;;;;;;18.02;13.32;;;;;;;8.89;100.00;92720.31;5064561;28;20044;-73
2024/03/01 03:02:13;;;;;;;21.42;14.02;;;;;;;8.83;100.00;92728.84;5066871;28;20578;-73
2024/03/01 03:04:40;;;;;;;20.48;14.38;;;;;;;8.74;100.00;92728.34;5062816;28;20525;-74
2024/03/01 03:07:07;;;;;;;22.08;15.40;;;;;;;8.71;100.00;92728.75;5064315;28;20044;-74
2024/03/01 03:09:33;;;;;;;26.05;16.35;;;;;;;8.73;100.00;92731.09;5064671;28;20067;-74
2024/03/01 03:12:01;;;;;;;24.20;16.52;;;;;;;8.61;100.00;92718.97;5067236;28;20041;-74
2024/03/01 03:14:28;;;;;;;27.30;16.50;;;;;;;8.61;100.00;92708.75;5062972;28;20784;-74
2024/03/01 03:16:56;;;;;;;23.65;15.43;;;;;;;8.66;100.00;92710.69;5066439;28;20049;-74
2024/03/01 03:19:23;;;;;;;23.42;15.90;;;;;;;8.62;100.00;92714.66;5059730;28;20044;-74
2024/03/01 03:21:50;;;;;;;23.08;15.65;;;;;;;8.66;100.00;92726.06;5061927;28;20421;-74
2024/03/01 03:24:18;;;;;;;24.27;17.02;;;;;;;8.57;100.00;92715.28;5066531;28;20132;-73
2024/03/01 03:26:45;;;;;;;22.45;16.13;;;;;;;8.52;100.00;92695.41;5066716;28;20055;-73
2024/03/01 03:29:12;;;;;;;25.42;16.95;;;;;;;8.55;100.00;92696.78;5062630;28;20063;-73
2024/03/01 03:31:41;;;;;;;23.05;16.27;;;;;;;8.51;100.00;92713.50;5065119;28;20047;-74
2024/03/01 03:34:09;;;;;;;29.20;17.50;;;;;;;8.48;100.00;92727.50;5066170;28;20044;-73
2024/03/01 03:36:36;;;;;;;33.45;19.80;;;;;;;8.46;100.00;92719.25;5063977;28;20053;-73
2024/03/01 03:39:06;;;;;;;28.70;18.92;;;;;;;8.41;100.00;92706.31;5056770;28;20048;-73
2024/03/01 03:41:33;;;;;;;30.30;18.55;;;;;;;8.26;100.00;92702.28;5047273;28;20045;-73
2024/03/01 03:44:00;;;;;;;28.20;20.05;;;;;;;8.29;100.00;92712.09;5044546;28;20048;-74
2024/03/01 03:46:27;;;;;;;27.98;19.25;;;;;;;8.35;100.00;92694.34;5040679;28;20630;-74
2024/03/01 03:48:54;;;;;;;33.95;22.08;;;;;;;8.27;100.00;92687.72;5039994;28;20492;-73
2024/03/01 03:51:26;;;;;;;32.85;22.25;;;;;;;8.25;100.00;92721.16;5052204;28;20045;-73
2024/03/01 03:53:54;;;;;;;32.25;20.48;;;;;;;8.16;100.00;92725.00;5065123;28;20048;-73
2024/03/01 03:56:21;;;;;;;31.00;21.02;;;;;;;8.19;100.00;92728.91;5066387;28;20066;-73
2024/03/01 03:58:48;;;;;;;27.92;18.35;;;;;;;8.04;100.00;92722.28;5063932;28;20133;-73
2024/03/01 04:01:15;;;;;;;26.98;18.83;;;;;;;8.01;100.00;92692.78;5064891;28;20049;-73
2024/03/01 04:03:42;;;;;;;30.75;20.60;;;;;;;7.85;100.00;92683.84;5061297;28;20048;-73
2024/03/01 04:06:10;;;;;;;29.65;20.58;;;;;;;7.97;100.00;92701.84;5061812;28;20044;-73
2024/03/01 04:08:39;;;;;;;30.98;19.73;;;;;;;8.01;100.00;92700.47;5065555;28;20059;-73
2024/03/01 04:11:06;;;;;;;29.52;20.65;;;;;;;7.97;100.00;92699.31;5065963;28;20140;-73
2024/03/01 04:13:34;;;;;;;27.48;18.02;;;;;;;7.95;100.00;92682.59;5056591;28;20067;-73
2024/03/01 04:16:01;;;;;;;29.58;19.25;;;;;;;7.89;100.00;92674.00;5066115;28;20049;-73
2024/03/01 04:18:29;;;;;;;28.05;19.42;;;;;;;7.84;100.00;92671.25;5061095;28;20128;-73
2024/03/01 04:20:56;;;;;;;29.35;19.85;;;;;;;7.82;100.00;92673.25;5061455;28;20051;-73
2024/03/01 04:23:24;;;;;;;28.42;19.55;;;;;;;7.88;100.00;92667.31;5061331;28;20135;-74
2024/03/01 04:25:53;;;;;;;28.80;19.73;;;;;;;7.92;100.00;92670.25;5062099;28;20126;-73
2024/03/01 04:28:20;;;;;;;28.48;19.83;;;;;;;7.90;100.00;92670.44;5059902;28;20037;-73
2024/03/01 04:30:47;;;;;;;27.90;19.40;;;;;;;7.92;100.00;92678.69;5064206;28;20044;-74
2024/03/01 04:33:14;;;;;;;27.63;18.80;;;;;;;7.91;100.00;92677.13;5065678;28;20147;-73
2024/03/01 04:35:42;;;;;;;25.95;18.73;;;;;;;7.88;100.00;92683.41;5063730;28;20076;-73
2024/03/01 04:38:09;;;;;;;26.55;18.98;;;;;;;7.90;100.00;92698.56;5063410;28;20066;-73
2024/03/01 04:40:37;;;;;;;31.40;20.00;;;;;;;7.78;100.00;92695.88;5064545;28;20048;-74
2024/03/01 04:43:06;;;;;;;35.10;22.88;;;;;;;7.65;100.00;92694.19;5063313;28;20048;-74
2024/03/01 04:45:33;;;;;;;34.97;26.27;;;;;;;7.63;100.00;92688.47;5060768;28;20049;-73
2024/03/01 04:48:00;;;;;;;38.22;25.00;;;;;;;7.66;100.00;92685.53;5056470;28;20045;-74
2024/03/01 04:50:27;;;;;;;34.72;22.08;;;;;;;7.65;100.00;92690.81;5061673;28;20041;-73
2024/03/01 04:52:54;;;;;;;33.85;24.00;;;;;;;7.53;100.00;92683.00;5060638;28;20426;-74
2024/03/01 04:55:21;;;;;;;35.00;24.15;;;;;;;7.49;100.00;92693.66;5064725;28;20058;-74
2024/03/01 04:57:48;;;;;;;38.40;26.08;;;;;;;7.58;100.00;92712.09;5062951;28;20046;-73
2024/03/01 05:00:21;;;;;;;33.50;22.80;;;;;;;7.61;100.00;92716.81;5064265;28;20044;-73
2024/03/01 05:02:48;;;;;;;29.58;20.75;;;;;;;7.56;100.00;92711.53;5062867;28;20501;-74
2024/03/01 05:05:16;;;;;;;33.28;22.15;;;;;;;7.69;100.00;92713.22;5063989;28;20049;-73
2024/03/01 05:07:48;;;;;;;30.15;21.42;;;;;;;7.75;100.00;92721.84;5069091;28;20510;-73
2024/03/01 05:10:21;;;;;;;31.77;21.85;;;;;;;7.60;100.00;92709.34;5064962;28;20084;-73
2024/03/01 05:12:49;;;;;;;39.03;23.88;;;;;;;7.71;100.00;92716.38;5067816;28;20045;-73
2024/03/01 05:15:18;;;;;;;39.05;24.63;;;;;;;7.78;100.00;92718.88;5064301;28;20056;-73
2024/03/01 05:17:46;;;;;;;32.88;21.73;;;;;;;7.77;100.00;92716.53;5068513;28;20048;-73
2024/03/01 05:20:14;;;;;;;32.55;21.70;;;;;;;7.79;100.00;92733.25;5066859;28;20772;-73
2024/03/01 05:22:43;;;;;;;27.83;20.45;;;;;;;7.84;100.00;92737.75;5068059;28;20164;-74
2024/03/01 05:25:17;;;;;;;29.95;21.70;;;;;;;7.73;100.00;92718.72;5064286;28;20358;-74
2024/03/01 05:27:45;;;;;;;33.72;21.58;;;;;;;7.85;100.00;92731.63;5065937;28;20053;-74
2024/03/01 05:30:15;;;;;;;33.13;21.63;;;;;;;7.86;100.00;92740.88;5068338;28;20044;-74
2024/03/01 05:32:43;;;;;;;34.45;22.20;;;;;;;7.71;100.00;92730.91;5065994;28;20477;-74
2024/03/01 05:35:11;;;;;;;36.65;22.52;;;;;;;7.88;100.00;92749.13;5067418;28;20783;-73
2024/03/01 05:37:38;;;;;;;27.00;19.38;;;;;;;7.82;100.00;92732.81;5063069;28;20054;-73
2024/03/01 05:40:10;;;;;;;27.52;18.15;;;;;;;7.81;100.00;92733.03;5065510;28;20049;-73
2024/03/01 05:42:38;;;;;;;28.85;19.20;;;;;;;7.73;100.00;92713.63;5068581;28;20138;-73
2024/03/01 05:45:07;;;;;;;29.75;18.90;;;;;;;7.98;100.00;92725.69;5068370;28;20048;-73
2024/03/01 05:47:35;;;;;;;29.40;19.80;;;;;;;7.92;100.00;92717.03;5064080;28;20056;-73
2024/03/01 05:50:05;;;;;;;33.97;21.38;;;;;;;8.03;100.00;92730.97;5063048;28;20536;-73
2024/03/01 05:52:32;;;;;;;33.95;21.30;;;;;;;7.87;100.00;92717.66;5064895;28;20051;-73
2024/03/01 05:54:59;;;;;;;35.78;24.33;;;;;;;7.80;100.00;92713.56;5062393;28;20052;-73
2024/03/01 05:57:26;;;;;;;38.72;27.42;;;;;;;7.62;100.00;92710.72;5067496;28;20045;-72
2024/03/01 05:59:53;;;;;;;45.17;30.88;;;;;;;7.47;100.00;92710.19;5066884;28;20048;-73
2024/03/01 06:02:22;;;;;;;98.22;61.05;;;;;;;7.27;100.00;92702.59;5063741;28;20052;-72
2024/03/01 06:04:49;;;;;;;117.00;75.85;;;;;;;7.58;100.00;92706.97;5061790;28;20055;-72
2024/03/01 06:07:18;;;;;;;89.25;57.72;;;;;;;7.72;100.00;92701.78;5054283;28;20049;-72
2024/03/01 06:09:45;;;;;;;81.28;53.53;;;;;;;7.88;100.00;92700.56;5051651;28;20052;-73
2024/03/01 06:12:12;;;;;;;68.18;45.25;;;;;;;8.10;100.00;92703.56;5050258;28;20426;-73
2024/03/01 06:14:39;;;;;;;52.58;33.17;;;;;;;8.21;100.00;92701.34;5049433;28;20048;-73
2024/03/01 06:17:06;;;;;;;45.97;33.05;;;;;;;8.21;100.00;92689.34;5049288;28;20430;-73
2024/03/01 06:19:33;;;;;;;46.30;31.27;;;;;;;8.42;100.00;92710.44;5056076;28;20045;-72
2024/03/01 06:22:00;;;;;;;50.42;33.72;;;;;;;8.54;100.00;92710.56;5058020;28;20037;-73
2024/03/01 06:24:29;;;;;;;58.85;37.70;;;;;;;8.59;100.00;92715.84;5049670;28;20056;-73
2024/03/01 06:26:56;;;;;;;53.67;35.67;;;;;;;8.68;100.00;92724.84;5051049;28;20049;-73
2024/03/01 06:29:23;;;;;;;47.55;29.95;;;;;;;8.70;100.00;92719.50;5050227;28;20247;-73
2024/03/01 06:31:50;;;;;;;47.28;29.77;;;;;;;8.78;100.00;92714.13;5047910;28;20072;-73
2024/03/01 06:34:17;;;;;;;43.28;27.98;;;;;;;8.73;100.00;92713.97;5050848;28;20045;-73
2024/03/01 06:36:44;;;;;;;41.92;27.98;;;;;;;8.81;100.00;92723.94;5049646;28;20059;-73
2024/03/01 06:39:11;;;;;;;42.45;28.08;;;;;;;8.90;100.00;92726.25;5050162;28;20055;-73
2024/03/01 06:41:39;;;;;;;47.35;29.85;;;;;;;8.99;100.00;92724.19;5048685;28;20046;-73
2024/03/01 06:44:07;;;;;;;47.88;31.73;;;;;;;9.10;100.00;92726.03;5050874;28;20053;-73
2024/03/01 06:46:34;;;;;;;43.63;29.23;;;;;;;9.16;100.00;92738.00;5053310;28;20037;-73
2024/03/01 06:49:01;;;;;;;40.85;26.42;;;;;;;9.12;100.00;92726.59;5049881;28;20040;-73
2024/03/01 06:51:29;;;;;;;39.22;26.67;;;;;;;9.26;100.00;92721.38;5049166;28;20060;-73
2024/03/01 06:53:56;;;;;;;40.67;27.40;;;;;;;9.33;100.00;92728.00;5050011;28;20041;-73
2024/03/01 06:56:23;;;;;;;35.85;25.27;;;;;;;9.40;100.00;92733.03;5048970;28;20044;-73
2024/03/01 06:58:51;;;;;;;40.45;28.77;;;;;;;9.51;100.00;92718.72;5052985;28;20529;-73
2024/03/01 07:01:18;;;;;;;48.20;32.17;;;;;;;9.58;100.00;92716.84;5050812;28;20053;-73
2024/03/01 07:03:45;;;;;;;48.53;31.92;;;;;;;9.66;100.00;92715.00;5051296;28;20059;-73
2024/03/01 07:06:12;;;;;;;43.50;29.67;;;;;;;9.73;100.00;92706.22;5048906;28;20053;-73
2024/03/01 07:08:39;;;;;;;46.50;29.83;;;;;;;9.81;100.00;92697.44;5055455;28;20048;-73
2024/03/01 07:11:07;;;;;;;49.53;29.42;;;;;;;9.84;100.00;92681.63;5051031;28;20098;-72
2024/03/01 07:13:34;;;;;;;41.35;27.17;;;;;;;9.93;100.00;92694.94;5052196;28;20041;-73
2024/03/01 07:16:02;;;;;;;37.47;25.33;;;;;;;9.92;100.00;92687.44;5049415;28;20168;-73
2024/03/01 07:18:29;;;;;;;34.25;24.88;;;;;;;10.04;100.00;92698.53;5051753;28;20049;-72
2024/03/01 07:20:56;;;;;;;45.00;29.40;;;;;;;10.07;100.00;92697.31;5060110;28;20055;-72
2024/03/01 07:23:23;;;;;;;45.13;30.65;;;;;;;10.11;100.00;92703.56;5051313;28;20056;-72
2024/03/01 07:25:50;;;;;;;56.10;33.05;;;;;;;10.13;100.00;92692.09;5051128;28;20048;-73
2024/03/01 07:28:17;;;;;;;53.40;37.95;;;;;;;10.12;100.00;92682.84;5047629;28;20045;-73
2024/03/01 07:30:44;;;;;;;53.47;35.92;;;;;;;10.23;99.50;92713.88;5051831;28;20049;-73
2024/03/01 07:33:12;;;;;;;45.63;30.65;;;;;;;10.19;100.00;92712.75;5051142;28;20041;-72
2024/03/01 07:35:39;;;;;;;41.65;29.80;;;;;;;10.14;100.00;92708.28;5057928;28;20070;-73
2024/03/01 07:38:06;;;;;;;42.70;27.80;;;;;;;10.24;100.00;92715.44;5048865;28;20156;-73
2024/03/01 07:40:33;;;;;;;35.78;24.42;;;;;;;10.26;100.00;92700.59;5048419;28;20048;-73
2024/03/01 07:43:00;;;;;;;32.17;22.17;;;;;;;10.29;100.00;92708.63;5048382;28;20049;-73
2024/03/01 07:45:28;;;;;;;34.50;21.60;;;;;;;10.34;100.00;92710.56;5052193;28;20498;-73
2024/03/01 07:47:55;;;;;;;27.17;19.70;;;;;;;10.34;100.00;92720.03;5048758;28;20102;-72
2024/03/01 07:50:23;;;;;;;27.75;19.77;;;;;;;10.43;100.00;92727.22;5052613;28;20052;-73
2024/03/01 07:52:50;;;;;;;27.98;21.05;;;;;;;10.50;100.00;92731.47;5050734;28;20049;-73
2024/03/01 07:55:17;;;;;;;45.75;29.95;;;;;;;10.59;98.46;92734.53;5048685;28;20446;-73
2024/03/01 07:57:44;;;;;;;43.80;29.65;;;;;;;10.68;96.94;92743.47;5047876;28;20060;-73
2024/03/01 08:00:11;;;;;;;33.97;22.83;;;;;;;10.75;96.94;92745.94;5052444;28;20118;-73
2024/03/01 08:02:38;;;;;;;42.88;24.27;;;;;;;10.80;96.88;92738.34;5055415;28;20406;-73
2024/03/01 08:05:06;;;;;;;33.03;21.80;;;;;;;10.85;95.64;92741.03;5047831;28;20045;-72
2024/03/01 08:07:34;;;;;;;40.92;25.25;;;;;;;10.98;95.43;92750.31;5050251;28;20090;-73
2024/03/01 08:10:02;;;;;;;40.75;25.85;;;;;;;11.05;94.39;92745.03;5050172;28;20521;-73
2024/03/01 08:12:28;;;;;;;42.03;25.17;;;;;;;11.07;94.55;92746.38;5056748;28;20055;-72
2024/03/01 08:14:55;;;;;;;31.58;21.05;;;;;;;11.08;94.76;92742.03;5053264;28;20045;-72
2024/03/01 08:17:22;;;;;;;28.30;19.45;;;;;;;11.11;95.37;92728.72;5048454;28;20435;-72
2024/03/01 08:19:50;;;;;;;29.98;20.42;;;;;;;11.20;94.79;92718.91;5052189;28;20079;-73
2024/03/01 08:22:19;;;;;;;29.23;20.08;;;;;;;11.15;95.40;92711.09;5051879;28;20114;-73
2024/03/01 08:24:48;;;;;;;33.88;21.20;;;;;;;11.25;95.38;92715.66;5048651;28;20061;-72
2024/03/01 08:27:16;;;;;;;34.88;23.25;;;;;;;11.29;94.62;92709.06;5050325;28;20457;-72
2024/03/01 08:29:43;;;;;;;31.25;21.30;;;;;;;11.37;93.34;92716.41;5048756;28;20053;-72
2024/03/01 08:32:28;;;;;;;34.25;21.58;;;;;;;11.49;92.70;92719.72;5051851;28;20045;-72
2024/03/01 08:34:57;;;;;;;33.10;22.40;;;;;;;11.59;91.54;92711.47;5046992;28;20060;-72
2024/03/01 08:37:25;;;;;;;35.53;23.55;;;;;;;11.67;91.24;92718.00;5054250;28;20049;-72
2024/03/01 08:39:54;;;;;;;35.03;24.40;;;;;;;11.70;90.44;92719.34;5046624;28;20868;-71
2024/03/01 08:42:21;;;;;;;29.17;20.48;;;;;;;11.78;89.18;92721.56;5050579;28;20048;-72
2024/03/01 08:44:58;;;;;;;33.10;21.83;;;;;;;11.86;89.54;92735.88;5051031;28;20059;-72
2024/03/01 08:47:31;;;;;;;34.38;20.80;;;;;;;11.98;90.32;92728.09;5055653;28;20099;-72
2024/03/01 08:50:33;;;;;;;30.27;21.70;;;;;;;12.07;89.64;92721.59;5052410;28;20045;-72
2024/03/01 08:53:00;;;;;;;37.50;22.63;;;;;;;12.10;89.51;92736.59;5062441;28;20561;-72
2024/03/01 08:55:52;;;;;;;31.63;22.05;;;;;;;12.15;88.78;92733.31;5061740;28;20041;-72
2024/03/01 08:58:23;;;;;;;29.80;20.75;;;;;;;12.23;88.08;92750.97;5054940;28;20049;-72
2024/03/01 09:00:53;;;;;;;35.95;20.52;;;;;;;12.28;87.44;92747.72;5049857;28;20074;-72
2024/03/01 09:03:23;;;;;;;28.27;19.50;;;;;;;12.02;87.03;92709.41;5055394;28;20094;-72
2024/03/01 09:05:52;;;;;;;25.63;16.88;;;;;;;12.28;86.06;92740.00;5052126;28;20494;-72
2024/03/01 09:08:26;;;;;;;26.70;17.23;;;;;;;12.36;86.21;92737.03;5053467;28;20045;-72
2024/03/01 09:10:55;;;;;;;29.48;16.60;;;;;;;12.43;86.14;92734.31;5050815;28;20045;-72
2024/03/01 09:13:24;;;;;;;24.92;17.00;;;;;;;12.49;86.23;92732.63;5058799;28;20067;-72
2024/03/01 09:15:52;;;;;;;29.42;19.42;;;;;;;12.58;86.01;92733.78;5053816;28;20041;-72
2024/03/01 09:18:42;;;;;;;25.83;18.20;;;;;;;12.68;86.20;92735.72;5050275;28;20045;-72
2024/03/01 09:21:46;;;;;;;35.92;21.88;;;;;;;12.80;84.99;92731.28;5043762;28;20053;-72
2024/03/01 09:24:15;;;;;;;31.15;21.45;;;;;;;12.94;84.53;92742.06;5047066;28;20422;-73
2024/03/01 09:26:44;;;;;;;36.78;21.05;;;;;;;12.99;83.23;92738.78;5050849;28;20131;-72
2024/03/01 09:29:36;;;;;;;38.65;23.48;;;;;;;12.85;81.63;92740.09;5052104;28;20052;-72
2024/03/01 09:32:03;;;;;;;29.95;21.23;;;;;;;12.93;83.62;92737.94;5053363;28;20048;-72
2024/03/01 09:34:35;;;;;;;32.55;20.60;;;;;;;13.00;82.51;92718.94;5050864;28;20051;-72
2024/03/01 09:37:04;;;;;;;31.38;20.55;;;;;;;13.11;81.30;92720.63;5052499;28;20057;-72
2024/03/01 09:39:33;;;;;;;28.92;19.75;;;;;;;13.21;79.48;92725.16;5054294;28;20051;-72
2024/03/01 09:42:36;;;;;;;31.80;20.33;;;;;;;13.32;81.66;92721.69;5049760;28;20041;-72
2024/03/01 09:45:39;;;;;;;26.23;17.95;;;;;;;13.28;76.93;92719.81;5052552;28;20045;-72
2024/03/01 09:48:15;;;;;;;26.30;17.23;;;;;;;13.37;77.85;92718.38;5051282;28;20052;-72
2024/03/01 09:50:55;;;;;;;29.67;19.45;;;;;;;13.47;80.38;92718.53;5054092;28;20052;-72
2024/03/01 09:53:37;;;;;;;31.55;18.90;;;;;;;13.62;80.93;92725.69;5052385;28;20098;-72
2024/03/01 09:56:12;;;;;;;24.55;16.98;;;;;;;13.68;79.42;92700.72;5051553;28;20063;-72
2024/03/01 09:58:49;;;;;;;23.95;16.63;;;;;;;13.88;77.86;92715.66;5051104;28;20402;-72
2024/03/01 10:01:21;;;;;;;26.50;17.08;;;;;;;13.90;77.70;92695.53;5052487;28;20480;-72
2024/03/01 10:04:03;;;;;;;24.77;16.30;;;;;;;14.13;76.68;92718.75;5050038;28;20048;-72
2024/03/01 10:06:47;;;;;;;26.05;16.15;;;;;;;14.09;76.24;92708.13;5053996;28;20889;-72
2024/03/01 10:09:21;;;;;;;22.05;14.80;;;;;;;14.21;74.57;92710.53;5050670;28;20048;-72
2024/03/01 10:11:58;;;;;;;18.73;11.88;;;;;;;14.30;72.47;92719.41;5052572;28;20071;-72
2024/03/01 10:14:37;;;;;;;36.08;20.38;;;;;;;14.31;68.88;92712.47;5050257;28;20044;-72
2024/03/01 10:17:11;;;;;;;28.92;15.10;;;;;;;14.30;68.25;92703.91;5051182;28;20537;-72
2024/03/01 10:20:07;;;;;;;19.33;12.27;;;;;;;14.16;69.30;92687.25;5048642;28;20052;-72
2024/03/01 10:22:46;;;;;;;17.77;10.73;;;;;;;14.32;67.63;92692.56;5049432;28;20080;-72
2024/03/01 10:25:31;;;;;;;14.20;9.77;;;;;;;14.43;65.81;92697.56;5049297;28;20049;-72
2024/03/01 10:28:05;;;;;;;15.97;10.27;;;;;;;14.61;69.81;92690.47;5060053;28;20053;-72
2024/03/01 10:30:45;;;;;;;20.70;10.48;;;;;;;14.76;68.37;92684.66;5054768;28;20521;-72
2024/03/01 10:33:26;;;;;;;17.17;9.57;;;;;;;14.90;66.08;92690.19;5052213;28;20138;-72
2024/03/01 10:36:03;;;;;;;15.90;10.23;;;;;;;14.93;66.37;92684.53;5048636;28;20123;-72
2024/03/01 10:38:38;;;;;;;22.40;11.82;;;;;;;15.10;66.16;92684.34;5051471;28;20049;-72
2024/03/01 10:41:13;;;;;;;17.38;11.02;;;;;;;15.43;66.44;92684.25;5050907;28;20410;-73
2024/03/01 10:43:53;;;;;;;24.27;12.93;;;;;;;15.59;65.16;92666.19;5049807;28;20057;-72
2024/03/01 10:46:25;;;;;;;16.88;10.43;;;;;;;15.56;64.11;92677.81;5050549;28;20290;-73
2024/03/01 10:49:02;;;;;;;16.88;10.00;;;;;;;15.57;64.69;92676.00;5058417;28;20421;-72
2024/03/01 10:51:34;;;;;;;19.58;10.43;;;;;;;15.77;65.11;92670.13;5051988;28;20467;-72
2024/03/01 10:54:05;;;;;;;14.57;9.77;;;;;;;15.87;63.94;92659.78;5062108;28;20054;-72
2024/03/01 10:56:32;;;;;;;20.50;10.35;;;;;;;16.00;63.17;92665.53;5048519;28;20521;-72
2024/03/01 10:59:05;;;;;;;28.08;11.57;;;;;;;16.00;63.07;92648.19;5051760;28;20049;-73
2024/03/01 11:01:37;;;;;;;21.45;10.68;;;;;;;16.22;63.44;92659.34;5048996;28;20055;-72
2024/03/01 11:04:20;;;;;;;20.17;9.85;;;;;;;16.27;61.44;92656.75;5046718;28;20051;-72
2024/03/01 11:06:55;;;;;;;16.40;9.13;;;;;;;16.02;61.23;92655.72;5052251;28;20049;-72
2024/03/01 11:09:27;;;;;;;15.10;9.40;;;;;;;16.06;61.29;92651.56;5050978;28;20055;-72
2024/03/01 11:12:04;;;;;;;14.05;9.65;;;;;;;16.02;60.70;92648.72;5048484;28;20392;-72
2024/03/01 11:14:34;;;;;;;17.90;9.27;;;;;;;15.86;61.35;92642.69;5053040;28;20534;-72
2024/03/01 11:17:05;;;;;;;15.13;7.60;;;;;;;15.67;61.39;92642.41;5049309;28;20083;-73
2024/03/01 11:19:36;;;;;;;14.02;8.32;;;;;;;15.62;61.99;92643.16;5053944;28;20040;-72
2024/03/01 11:22:18;;;;;;;13.38;8.40;;;;;;;15.39;62.54;92618.50;5050040;28;20057;-72
2024/03/01 11:24:56;;;;;;;14.73;8.10;;;;;;;15.43;61.91;92634.28;5048844;28;20255;-72
2024/03/01 11:27:29;;;;;;;15.57;8.80;;;;;;;15.41;62.86;92639.72;5057286;28;20357;-72
2024/03/01 11:30:05;;;;;;;14.90;9.98;;;;;;;15.34;62.40;92627.03;5049490;28;20056;-72